Aegean Princess — ZDID9 — position and weather

sailwx.info

Track history (hours):
 
Tides and Currents Weather Stations Pressure Air Temp Water Temp Dewpoint Dewpoint Depression Visibility Wind Speed Wind Dir Waves Ship Positions

Aegean Princess

Last reported at 2015-Mar-28 17:33 UTC. Time now 2015-Mar-28 17:51 UTC.
Position N 36°08' W 005°23'.

Length 100 m; draft 6.6 m.

Type: Ship. MMSI: 236111476.

Date/timePositionNaut miles runAvg speedWind from/ knotsBaromVisibWave heightAir tempDewpointWater temp
2015-Mar-28 17:33N 36°08' W 005°23'0 0.0
2015-Mar-28 16:33N 36°08' W 005°23'0 0.0
2015-Mar-28 15:33N 36°08' W 005°23'0 0.0
2015-Mar-28 14:24N 36°08' W 005°23'0 0.0
2015-Mar-28 13:33N 36°08' W 005°23'0 0.0
2015-Mar-28 11:21N 36°08' W 005°23'0 0.1
2015-Mar-28 10:33N 36°08' W 005°23'0 0.0
2015-Mar-28 09:33N 36°08' W 005°23'0 0.1
2015-Mar-28 07:33N 36°08' W 005°23'0 0.1
2015-Mar-28 06:30N 36°08' W 005°23'0 0.1
2015-Mar-28 05:33N 36°08' W 005°23'2 1.1
2015-Mar-28 04:03N 36°09' W 005°22'0 0.0
2015-Mar-28 01:27N 36°09' W 005°22'0 0.0
2015-Mar-28 00:15N 36°09' W 005°22'0 0.0
2015-Mar-27 23:12N 36°09' W 005°22'0 0.0
2015-Mar-27 22:33N 36°09' W 005°22'0 0.0
2015-Mar-27 17:21N 36°09' W 005°22'0 0.0
2015-Mar-27 08:29N 36°09' W 005°22'3 3.1
2015-Mar-27 07:33N 36°07' W 005°22'9 9.1
2015-Mar-27 06:33N 35°58' W 005°26'2 0.2
2015-Mar-26 19:33N 35°58' W 005°29'7 6.7
2015-Mar-26 18:33N 36°02' W 005°23'7 7.0
2015-Mar-26 17:32N 36°09' W 005°23'0 0.0
2015-Mar-26 11:05N 36°09' W 005°22'0 0.0
2015-Mar-24 10:22N 36°09' W 005°22'0 0.0
2015-Mar-24 04:09N 36°09' W 005°22'0 0.0
2015-Mar-24 02:06N 36°09' W 005°22'0 0.0
2015-Mar-24 01:15N 36°09' W 005°22'0 0.0
2015-Mar-24 00:21N 36°09' W 005°22'0 0.0
2015-Mar-23 23:03N 36°09' W 005°22'0 0.0
2015-Mar-23 16:03N 36°09' W 005°22'0 0.1
2015-Mar-23 15:33N 36°09' W 005°22'2 1.9
2015-Mar-23 14:30N 36°08' W 005°22'0 0.1
2015-Mar-23 13:33N 36°08' W 005°22'0 0.2
2015-Mar-23 12:33N 36°07' W 005°22'0 0.1
2015-Mar-23 11:33N 36°07' W 005°22'0 0.0
2015-Mar-23 10:30N 36°07' W 005°22'1 0.8
2015-Mar-23 09:32N 36°07' W 005°21'0 0.0
2015-Mar-23 08:29N 36°07' W 005°21'0 0.0
2015-Mar-23 07:32N 36°07' W 005°21'0 0.0
2015-Mar-23 06:32N 36°07' W 005°21'0 0.0
2015-Mar-23 05:29N 36°07' W 005°21'0 0.0
2015-Mar-23 04:32N 36°07' W 005°21'2 1.7
2015-Mar-23 03:33N 36°08' W 005°22'0 0.1
2015-Mar-23 02:32N 36°08' W 005°22'0 0.1
2015-Mar-23 01:29N 36°08' W 005°22'0 0.2
2015-Mar-23 00:32N 36°08' W 005°22'0 0.0
2015-Mar-22 23:29N 36°08' W 005°22'0 0.0
2015-Mar-22 22:32N 36°08' W 005°22'0 0.2
2015-Mar-22 21:33N 36°08' W 005°22'1 0.5
2015-Mar-22 20:31N 36°09' W 005°22'0 0.0
2015-Mar-22 19:31N 36°09' W 005°22'0 0.2
2015-Mar-22 18:31N 36°09' W 005°22'0 0.0
2015-Mar-22 17:28N 36°09' W 005°22'0 0.0
2015-Mar-22 16:31N 36°09' W 005°22'0 0.1
2015-Mar-22 15:33N 36°09' W 005°22'4 3.7
2015-Mar-22 14:33N 36°07' W 005°18'0 0.1
2015-Mar-22 13:33N 36°07' W 005°18'0 0.0
2015-Mar-22 12:33N 36°07' W 005°18'0 0.0
2015-Mar-22 11:33N 36°07' W 005°18'0 0.0
2015-Mar-22 10:33N 36°07' W 005°18'0 0.1
2015-Mar-22 09:33N 36°07' W 005°18'0 0.1
2015-Mar-22 08:33N 36°07' W 005°18'0 0.0
2015-Mar-22 07:33N 36°07' W 005°18'0 0.0
2015-Mar-22 06:33N 36°07' W 005°18'0 0.0
2015-Mar-22 05:33N 36°07' W 005°18'1 1.0
2015-Mar-22 04:33N 36°06' W 005°19'3 1.9
2015-Mar-22 03:03N 36°08' W 005°22'0 0.2
2015-Mar-22 02:33N 36°08' W 005°22'0 0.1
2015-Mar-22 01:33N 36°08' W 005°22'0 0.1
2015-Mar-22 00:33N 36°08' W 005°22'0 0.1
2015-Mar-21 23:30N 36°08' W 005°22'0 0.4
2015-Mar-21 22:33N 36°07' W 005°22'0 0.0
2015-Mar-21 21:33N 36°07' W 005°22'0 0.0
2015-Mar-21 20:33N 36°07' W 005°22'0 0.0
2015-Mar-21 19:33N 36°07' W 005°22'0 0.1
2015-Mar-21 18:12N 36°07' W 005°22'2 3.2
2015-Mar-21 17:33N 36°09' W 005°23'0 0.1
2015-Mar-21 16:28N 36°09' W 005°23'0 0.1
2015-Mar-21 15:31N 36°09' W 005°23'0 0.0
2015-Mar-21 14:28N 36°09' W 005°23'0 0.0
2015-Mar-21 13:28N 36°09' W 005°23'0 0.0
2015-Mar-21 12:22N 36°09' W 005°22'0 0.0
2015-Mar-21 11:25N 36°09' W 005°22'0 0.0
2015-Mar-21 10:28N 36°09' W 005°22'0 0.0
2015-Mar-21 09:31N 36°09' W 005°22'0 0.0
2015-Mar-21 08:28N 36°09' W 005°22'0 0.0
2015-Mar-21 07:31N 36°09' W 005°22'0 0.0
2015-Mar-21 06:28N 36°09' W 005°22'0 0.1
2015-Mar-21 05:33N 36°09' W 005°22'0 0.1
2015-Mar-21 04:30N 36°09' W 005°22'0 0.0
2015-Mar-21 03:33N 36°09' W 005°22'0 0.0
2015-Mar-21 02:33N 36°09' W 005°22'0 0.1
2015-Mar-21 01:33N 36°09' W 005°23'0 0.1
2015-Mar-21 00:33N 36°09' W 005°22'0 0.0
2015-Mar-20 23:30N 36°09' W 005°22'0 0.0
2015-Mar-20 22:33N 36°09' W 005°22'0 0.0
2015-Mar-20 21:33N 36°09' W 005°22'1 1.0
2015-Mar-20 20:30N 36°08' W 005°22'0 0.1
2015-Mar-20 18:30N 36°08' W 005°22'0 0.0
2015-Mar-20 17:21N 36°08' W 005°22'0 0.0
2015-Mar-20 16:17N 36°08' W 005°22'0 0.7
2015-Mar-20 15:32N 36°09' W 005°22'0 0.0
2015-Mar-20 14:32N 36°09' W 005°22'0 0.0
2015-Mar-20 13:32N 36°09' W 005°22'0 0.0
2015-Mar-20 12:32N 36°09' W 005°22'0 0.0
2015-Mar-20 11:32N 36°09' W 005°22'0 0.0
2015-Mar-20 10:32N 36°09' W 005°22'0 0.0
2015-Mar-20 09:32N 36°09' W 005°22'0 0.0
2015-Mar-20 08:32N 36°09' W 005°22'0 0.0
2015-Mar-20 07:32N 36°09' W 005°22'0 0.0
2015-Mar-20 06:32N 36°09' W 005°22'0 0.0
2015-Mar-20 05:32N 36°09' W 005°22'0 0.0
2015-Mar-20 04:32N 36°09' W 005°22'0 0.0
2015-Mar-20 03:29N 36°09' W 005°22'0 0.0
2015-Mar-20 02:32N 36°09' W 005°22'0 0.0
2015-Mar-20 01:32N 36°09' W 005°22'0 0.0
2015-Mar-20 00:32N 36°09' W 005°22'0 0.0
2015-Mar-19 23:32N 36°09' W 005°22'0 0.0
2015-Mar-19 22:29N 36°09' W 005°22'0 0.0
2015-Mar-19 21:32N 36°09' W 005°22'0 0.0
2015-Mar-19 20:32N 36°09' W 005°22'0 0.0
2015-Mar-19 19:32N 36°09' W 005°22'0 0.0
2015-Mar-19 18:32N 36°09' W 005°22'0 0.0
2015-Mar-19 17:32N 36°09' W 005°22'0 0.0
2015-Mar-19 16:32N 36°09' W 005°22'0 0.0
2015-Mar-19 15:24N 36°09' W 005°22'0 0.0
2015-Mar-19 13:21N 36°09' W 005°22'0 0.0
2015-Mar-19 11:30N 36°09' W 005°22'0 0.0
2015-Mar-19 09:33N 36°09' W 005°22'0 0.0
2015-Mar-19 08:23N 36°09' W 005°22'0 0.0
2015-Mar-19 07:32N 36°09' W 005°22'0 0.0
2015-Mar-19 06:11N 36°09' W 005°22'0 0.0
2015-Mar-19 05:29N 36°09' W 005°22'0 0.0
2015-Mar-19 04:32N 36°09' W 005°22'0 0.0
2015-Mar-19 02:23N 36°09' W 005°22'0 0.0
2015-Mar-19 01:17N 36°09' W 005°22'0 0.0
2015-Mar-19 00:29N 36°09' W 005°22'1 1.1
2015-Mar-18 23:33N 36°08' W 005°22'2 1.4
2015-Mar-18 22:27N 36°09' W 005°22'0 0.1
2015-Mar-18 21:30N 36°09' W 005°22'0 0.0
2015-Mar-18 20:21N 36°09' W 005°22'0 0.0
2015-Mar-18 19:15N 36°09' W 005°22'0 0.0
2015-Mar-18 18:27N 36°09' W 005°22'  
Track history (hours):
 
Tides and Currents Weather Stations Pressure Air Temp Water Temp Dewpoint Dewpoint Depression Visibility Wind Speed Wind Dir Waves Ship Positions

Aegean Princess

Last reported at 2015-Mar-28 17:33 UTC. Time now 2015-Mar-28 17:51 UTC.
Position N 36°08' W 005°23'.

Length 100 m; draft 6.6 m.

Type: Ship. MMSI: 236111476.

Date/timePositionNaut miles runAvg speedWind from/ knotsBaromVisibWave heightAir tempDewpointWater temp
2015-Mar-28 17:33N 36°08' W 005°23'0 0.0
2015-Mar-28 16:33N 36°08' W 005°23'0 0.0
2015-Mar-28 15:33N 36°08' W 005°23'0 0.0
2015-Mar-28 14:24N 36°08' W 005°23'0 0.0
2015-Mar-28 13:33N 36°08' W 005°23'0 0.0
2015-Mar-28 11:21N 36°08' W 005°23'0 0.1
2015-Mar-28 10:33N 36°08' W 005°23'0 0.0
2015-Mar-28 09:33N 36°08' W 005°23'0 0.1
2015-Mar-28 07:33N 36°08' W 005°23'0 0.1
2015-Mar-28 06:30N 36°08' W 005°23'0 0.1
2015-Mar-28 05:33N 36°08' W 005°23'2 1.1
2015-Mar-28 04:03N 36°09' W 005°22'0 0.0
2015-Mar-28 01:27N 36°09' W 005°22'0 0.0
2015-Mar-28 00:15N 36°09' W 005°22'0 0.0
2015-Mar-27 23:12N 36°09' W 005°22'0 0.0
2015-Mar-27 22:33N 36°09' W 005°22'0 0.0
2015-Mar-27 17:21N 36°09' W 005°22'0 0.0
2015-Mar-27 08:29N 36°09' W 005°22'3 3.1
2015-Mar-27 07:33N 36°07' W 005°22'9 9.1
2015-Mar-27 06:33N 35°58' W 005°26'2 0.2
2015-Mar-26 19:33N 35°58' W 005°29'7 6.7
2015-Mar-26 18:33N 36°02' W 005°23'7 7.0
2015-Mar-26 17:32N 36°09' W 005°23'0 0.0
2015-Mar-26 11:05N 36°09' W 005°22'0 0.0
2015-Mar-24 10:22N 36°09' W 005°22'0 0.0
2015-Mar-24 04:09N 36°09' W 005°22'0 0.0
2015-Mar-24 02:06N 36°09' W 005°22'0 0.0
2015-Mar-24 01:15N 36°09' W 005°22'0 0.0
2015-Mar-24 00:21N 36°09' W 005°22'0 0.0
2015-Mar-23 23:03N 36°09' W 005°22'0 0.0
2015-Mar-23 16:03N 36°09' W 005°22'0 0.1
2015-Mar-23 15:33N 36°09' W 005°22'2 1.9
2015-Mar-23 14:30N 36°08' W 005°22'0 0.1
2015-Mar-23 13:33N 36°08' W 005°22'0 0.2
2015-Mar-23 12:33N 36°07' W 005°22'0 0.1
2015-Mar-23 11:33N 36°07' W 005°22'0 0.0
2015-Mar-23 10:30N 36°07' W 005°22'1 0.8
2015-Mar-23 09:32N 36°07' W 005°21'0 0.0
2015-Mar-23 08:29N 36°07' W 005°21'0 0.0
2015-Mar-23 07:32N 36°07' W 005°21'0 0.0
2015-Mar-23 06:32N 36°07' W 005°21'0 0.0
2015-Mar-23 05:29N 36°07' W 005°21'0 0.0
2015-Mar-23 04:32N 36°07' W 005°21'2 1.7
2015-Mar-23 03:33N 36°08' W 005°22'0 0.1
2015-Mar-23 02:32N 36°08' W 005°22'0 0.1
2015-Mar-23 01:29N 36°08' W 005°22'0 0.2
2015-Mar-23 00:32N 36°08' W 005°22'0 0.0
2015-Mar-22 23:29N 36°08' W 005°22'0 0.0
2015-Mar-22 22:32N 36°08' W 005°22'0 0.2
2015-Mar-22 21:33N 36°08' W 005°22'1 0.5
2015-Mar-22 20:31N 36°09' W 005°22'0 0.0
2015-Mar-22 19:31N 36°09' W 005°22'0 0.2
2015-Mar-22 18:31N 36°09' W 005°22'0 0.0
2015-Mar-22 17:28N 36°09' W 005°22'0 0.0
2015-Mar-22 16:31N 36°09' W 005°22'0 0.1
2015-Mar-22 15:33N 36°09' W 005°22'4 3.7
2015-Mar-22 14:33N 36°07' W 005°18'0 0.1
2015-Mar-22 13:33N 36°07' W 005°18'0 0.0
2015-Mar-22 12:33N 36°07' W 005°18'0 0.0
2015-Mar-22 11:33N 36°07' W 005°18'0 0.0
2015-Mar-22 10:33N 36°07' W 005°18'0 0.1
2015-Mar-22 09:33N 36°07' W 005°18'0 0.1
2015-Mar-22 08:33N 36°07' W 005°18'0 0.0
2015-Mar-22 07:33N 36°07' W 005°18'0 0.0
2015-Mar-22 06:33N 36°07' W 005°18'0 0.0
2015-Mar-22 05:33N 36°07' W 005°18'1 1.0
2015-Mar-22 04:33N 36°06' W 005°19'3 1.9
2015-Mar-22 03:03N 36°08' W 005°22'0 0.2
2015-Mar-22 02:33N 36°08' W 005°22'0 0.1
2015-Mar-22 01:33N 36°08' W 005°22'0 0.1
2015-Mar-22 00:33N 36°08' W 005°22'0 0.1
2015-Mar-21 23:30N 36°08' W 005°22'0 0.4
2015-Mar-21 22:33N 36°07' W 005°22'0 0.0
2015-Mar-21 21:33N 36°07' W 005°22'0 0.0
2015-Mar-21 20:33N 36°07' W 005°22'0 0.0
2015-Mar-21 19:33N 36°07' W 005°22'0 0.1
2015-Mar-21 18:12N 36°07' W 005°22'2 3.2
2015-Mar-21 17:33N 36°09' W 005°23'0 0.1
2015-Mar-21 16:28N 36°09' W 005°23'0 0.1
2015-Mar-21 15:31N 36°09' W 005°23'0 0.0
2015-Mar-21 14:28N 36°09' W 005°23'0 0.0
2015-Mar-21 13:28N 36°09' W 005°23'0 0.0
2015-Mar-21 12:22N 36°09' W 005°22'0 0.0
2015-Mar-21 11:25N 36°09' W 005°22'0 0.0
2015-Mar-21 10:28N 36°09' W 005°22'0 0.0
2015-Mar-21 09:31N 36°09' W 005°22'0 0.0
2015-Mar-21 08:28N 36°09' W 005°22'0 0.0
2015-Mar-21 07:31N 36°09' W 005°22'0 0.0
2015-Mar-21 06:28N 36°09' W 005°22'0 0.1
2015-Mar-21 05:33N 36°09' W 005°22'0 0.1
2015-Mar-21 04:30N 36°09' W 005°22'0 0.0
2015-Mar-21 03:33N 36°09' W 005°22'0 0.0
2015-Mar-21 02:33N 36°09' W 005°22'0 0.1
2015-Mar-21 01:33N 36°09' W 005°23'0 0.1
2015-Mar-21 00:33N 36°09' W 005°22'0 0.0
2015-Mar-20 23:30N 36°09' W 005°22'0 0.0
2015-Mar-20 22:33N 36°09' W 005°22'0 0.0
2015-Mar-20 21:33N 36°09' W 005°22'1 1.0
2015-Mar-20 20:30N 36°08' W 005°22'0 0.1
2015-Mar-20 18:30N 36°08' W 005°22'0 0.0
2015-Mar-20 17:21N 36°08' W 005°22'0 0.0
2015-Mar-20 16:17N 36°08' W 005°22'0 0.7
2015-Mar-20 15:32N 36°09' W 005°22'0 0.0
2015-Mar-20 14:32N 36°09' W 005°22'0 0.0
2015-Mar-20 13:32N 36°09' W 005°22'0 0.0
2015-Mar-20 12:32N 36°09' W 005°22'0 0.0
2015-Mar-20 11:32N 36°09' W 005°22'0 0.0
2015-Mar-20 10:32N 36°09' W 005°22'0 0.0
2015-Mar-20 09:32N 36°09' W 005°22'0 0.0
2015-Mar-20 08:32N 36°09' W 005°22'0 0.0
2015-Mar-20 07:32N 36°09' W 005°22'0 0.0
2015-Mar-20 06:32N 36°09' W 005°22'0 0.0
2015-Mar-20 05:32N 36°09' W 005°22'0 0.0
2015-Mar-20 04:32N 36°09' W 005°22'0 0.0
2015-Mar-20 03:29N 36°09' W 005°22'0 0.0
2015-Mar-20 02:32N 36°09' W 005°22'0 0.0
2015-Mar-20 01:32N 36°09' W 005°22'0 0.0
2015-Mar-20 00:32N 36°09' W 005°22'0 0.0
2015-Mar-19 23:32N 36°09' W 005°22'0 0.0
2015-Mar-19 22:29N 36°09' W 005°22'0 0.0
2015-Mar-19 21:32N 36°09' W 005°22'0 0.0
2015-Mar-19 20:32N 36°09' W 005°22'0 0.0
2015-Mar-19 19:32N 36°09' W 005°22'0 0.0
2015-Mar-19 18:32N 36°09' W 005°22'0 0.0
2015-Mar-19 17:32N 36°09' W 005°22'0 0.0
2015-Mar-19 16:32N 36°09' W 005°22'0 0.0
2015-Mar-19 15:24N 36°09' W 005°22'0 0.0
2015-Mar-19 13:21N 36°09' W 005°22'0 0.0
2015-Mar-19 11:30N 36°09' W 005°22'0 0.0
2015-Mar-19 09:33N 36°09' W 005°22'0 0.0
2015-Mar-19 08:23N 36°09' W 005°22'0 0.0
2015-Mar-19 07:32N 36°09' W 005°22'0 0.0
2015-Mar-19 06:11N 36°09' W 005°22'0 0.0
2015-Mar-19 05:29N 36°09' W 005°22'0 0.0
2015-Mar-19 04:32N 36°09' W 005°22'0 0.0
2015-Mar-19 02:23N 36°09' W 005°22'0 0.0
2015-Mar-19 01:17N 36°09' W 005°22'0 0.0
2015-Mar-19 00:29N 36°09' W 005°22'1 1.1
2015-Mar-18 23:33N 36°08' W 005°22'2 1.4
2015-Mar-18 22:27N 36°09' W 005°22'0 0.1
2015-Mar-18 21:30N 36°09' W 005°22'0 0.0
2015-Mar-18 20:21N 36°09' W 005°22'0 0.0
2015-Mar-18 19:15N 36°09' W 005°22'0 0.0
2015-Mar-18 18:27N 36°09' W 005°22'  

Dump ship's entire track history